Impacts TAF Board INFO
FOR SITUATIONAL AWARENESS. NOT TO BE USED FOR FLIGHT PLANNING PURPOSES.
IDs:

KTPA - Tampa Intl Arpt, FL, US

Issued at 0316 UTC 20 Aug 2018
Updated at 0331 UTC 20 Aug 2018
Potential Impact None Slight Moderate High
Time<<20/16Z 20/17Z 20/18Z 20/19Z 20/20Z 20/21Z 20/22Z 20/23Z 21/00Z 21/01Z 21/02Z 21/03Z 21/04Z>>
Type PRVL PRVL PRVL PRVL PRVL PRVL PRVL PRVL PRVL PRVL PRVL PRVL PRVL
VIS >6 >6 >6 >6 >6 >6 >6 >6 >6 >6 >6 >6 >6
CIG -- -- -- 250 250 250 250 250 250 250 250 250 250
Cover SCT SCT SCT BKN BKN BKN BKN BKN BKN BKN BKN BKN BKN
FltCat VFR VFR VFR VFR VFR VFR VFR VFR VFR VFR VFR VFR VFR
WX -- -- -- VCTS VCTS VCTS VCTS VCTS VCTS VCTS -- -- --
WDir 210 210 210 250 250 250 250 250 250 250 VRB VRB VRB
WSpd 6 6 6 8 8 8 8 8 8 8 3 3 3
WGst -- -- -- -- -- -- -- -- -- -- -- -- --

Raw TAF
KTPA 200316Z 2003/2106 VRB04KT P6SM FEW025 BKN120
  FM200600 VRB03KT P6SM SCT150 SCT250
  FM201500 21006KT P6SM SCT035 SCT250
  FM201900 25008KT P6SM VCTS SCT040CB SCT120 BKN250
  FM210200 VRB03KT P6SM SCT120 BKN250


METAR Board
Radar Display
Forecast Discussion

FOR SITUATIONAL AWARENESS. NOT TO BE USED FOR FLIGHT PLANNING PURPOSES.